Carnforth, Iowa
Current Conditions -  °F | °C
As of 10:35 AM on Saturday 20 Dec 2014 (Local Time) from KGGI Reporting Station
Unknown Precip Unknown Precip  
Wind Chill: 25°   Ceiling: 200
Heat Index: 32°   Visibility: 1mi
Dew Point: 31°   Wind: 7mph
Humidity: 97%   Direction: 160°SSE
Pressure: 30.19"   Gusts: NA
Location:  41.7326°N, 92.2462°W
Report Text: KGGI 201635Z AUTO 16006KT 1SM UP OVC002 00/00 A3019 RMK AO2 T10011005
Loading
Personal Weather Stations






























Interactive Weather Map New forecast layout! Learn more

10-Day Weather Forecast

Advertisements
Track Severe Weather on mobile